sensor_id;sensor_type;location;lat;lon;timestamp;P1;durP1;ratioP1;P2;durP2;ratioP2
11651;SDS011;5882;48.818;9.114;2023-05-10T00:02:12;0.80;;;0.80;;
11651;SDS011;5882;48.818;9.114;2023-05-10T00:04:57;0.80;;;0.80;;
11651;SDS011;5882;48.818;9.114;2023-05-10T00:07:42;0.60;;;0.60;;
11651;SDS011;5882;48.818;9.114;2023-05-10T00:10:28;0.60;;;0.60;;
11651;SDS011;5882;48.818;9.114;2023-05-10T00:13:14;0.60;;;0.60;;
11651;SDS011;5882;48.818;9.114;2023-05-10T00:15:59;0.60;;;0.60;;
11651;SDS011;5882;48.818;9.114;2023-05-10T00:18:44;0.60;;;0.60;;
11651;SDS011;5882;48.818;9.114;2023-05-10T00:21:29;0.57;;;0.57;;
11651;SDS011;5882;48.818;9.114;2023-05-10T00:24:15;0.60;;;0.60;;
11651;SDS011;5882;48.818;9.114;2023-05-10T00:27:00;0.60;;;0.60;;
11651;SDS011;5882;48.818;9.114;2023-05-10T00:29:49;0.60;;;0.60;;
11651;SDS011;5882;48.818;9.114;2023-05-10T00:32:34;0.50;;;0.50;;
11651;SDS011;5882;48.818;9.114;2023-05-10T00:35:19;0.50;;;0.50;;
11651;SDS011;5882;48.818;9.114;2023-05-10T00:38:05;0.60;;;0.60;;
11651;SDS011;5882;48.818;9.114;2023-05-10T00:40:49;0.60;;;0.60;;
11651;SDS011;5882;48.818;9.114;2023-05-10T00:43:35;0.60;;;0.60;;
11651;SDS011;5882;48.818;9.114;2023-05-10T00:46:21;0.60;;;0.60;;
11651;SDS011;5882;48.818;9.114;2023-05-10T00:49:06;0.60;;;0.60;;
11651;SDS011;5882;48.818;9.114;2023-05-10T00:51:51;0.60;;;0.60;;
11651;SDS011;5882;48.818;9.114;2023-05-10T00:54:36;0.57;;;0.57;;
11651;SDS011;5882;48.818;9.114;2023-05-10T00:57:21;0.55;;;0.55;;
11651;SDS011;5882;48.818;9.114;2023-05-10T01:00:07;0.60;;;0.60;;
11651;SDS011;5882;48.818;9.114;2023-05-10T01:02:55;0.60;;;0.60;;
11651;SDS011;5882;48.818;9.114;2023-05-10T01:05:40;0.60;;;0.60;;
11651;SDS011;5882;48.818;9.114;2023-05-10T01:15:09;0.60;;;0.60;;
11651;SDS011;5882;48.818;9.114;2023-05-10T01:17:56;0.75;;;0.75;;
11651;SDS011;5882;48.818;9.114;2023-05-10T01:20:43;0.70;;;0.70;;
11651;SDS011;5882;48.818;9.114;2023-05-10T01:23:41;0.60;;;0.60;;
11651;SDS011;5882;48.818;9.114;2023-05-10T01:26:34;0.60;;;0.60;;
11651;SDS011;5882;48.818;9.114;2023-05-10T01:29:37;0.60;;;0.60;;
11651;SDS011;5882;48.818;9.114;2023-05-10T01:32:34;0.60;;;0.60;;
11651;SDS011;5882;48.818;9.114;2023-05-10T01:35:22;0.77;;;0.77;;
11651;SDS011;5882;48.818;9.114;2023-05-10T01:38:11;0.70;;;0.70;;
11651;SDS011;5882;48.818;9.114;2023-05-10T01:41:00;0.70;;;0.70;;
11651;SDS011;5882;48.818;9.114;2023-05-10T01:43:48;0.65;;;0.65;;
11651;SDS011;5882;48.818;9.114;2023-05-10T01:46:35;0.70;;;0.70;;
11651;SDS011;5882;48.818;9.114;2023-05-10T01:49:23;0.60;;;0.60;;
11651;SDS011;5882;48.818;9.114;2023-05-10T01:52:12;0.70;;;0.70;;
11651;SDS011;5882;48.818;9.114;2023-05-10T01:54:59;0.60;;;0.60;;
11651;SDS011;5882;48.818;9.114;2023-05-10T01:57:46;0.70;;;0.70;;
11651;SDS011;5882;48.818;9.114;2023-05-10T02:00:33;0.70;;;0.70;;
11651;SDS011;5882;48.818;9.114;2023-05-10T02:03:18;0.60;;;0.60;;
11651;SDS011;5882;48.818;9.114;2023-05-10T02:06:06;0.60;;;0.60;;
11651;SDS011;5882;48.818;9.114;2023-05-10T02:08:52;0.63;;;0.63;;
11651;SDS011;5882;48.818;9.114;2023-05-10T02:11:37;0.70;;;0.70;;
11651;SDS011;5882;48.818;9.114;2023-05-10T02:14:23;0.70;;;0.70;;
11651;SDS011;5882;48.818;9.114;2023-05-10T02:17:09;0.70;;;0.70;;
11651;SDS011;5882;48.818;9.114;2023-05-10T02:19:54;0.70;;;0.70;;
11651;SDS011;5882;48.818;9.114;2023-05-10T02:22:42;0.70;;;0.70;;
11651;SDS011;5882;48.818;9.114;2023-05-10T02:25:27;0.70;;;0.70;;
11651;SDS011;5882;48.818;9.114;2023-05-10T02:28:14;1.10;;;1.00;;
11651;SDS011;5882;48.818;9.114;2023-05-10T02:31:00;1.80;;;1.70;;
11651;SDS011;5882;48.818;9.114;2023-05-10T02:33:45;3.55;;;3.35;;
11651;SDS011;5882;48.818;9.114;2023-05-10T02:36:31;4.00;;;3.70;;
11651;SDS011;5882;48.818;9.114;2023-05-10T02:39:17;3.17;;;2.88;;
11651;SDS011;5882;48.818;9.114;2023-05-10T02:42:03;2.58;;;2.38;;
11651;SDS011;5882;48.818;9.114;2023-05-10T02:44:50;2.05;;;1.95;;
11651;SDS011;5882;48.818;9.114;2023-05-10T02:47:35;1.65;;;1.55;;
11651;SDS011;5882;48.818;9.114;2023-05-10T02:50:20;1.40;;;1.30;;
11651;SDS011;5882;48.818;9.114;2023-05-10T02:53:06;1.45;;;1.35;;
11651;SDS011;5882;48.818;9.114;2023-05-10T02:55:55;1.25;;;1.15;;
11651;SDS011;5882;48.818;9.114;2023-05-10T02:58:42;0.90;;;0.90;;
11651;SDS011;5882;48.818;9.114;2023-05-10T03:01:27;0.93;;;0.93;;
11651;SDS011;5882;48.818;9.114;2023-05-10T03:04:12;0.80;;;0.80;;
11651;SDS011;5882;48.818;9.114;2023-05-10T03:06:57;0.80;;;0.80;;
11651;SDS011;5882;48.818;9.114;2023-05-10T03:09:43;0.75;;;0.75;;
11651;SDS011;5882;48.818;9.114;2023-05-10T03:12:33;0.90;;;0.90;;
11651;SDS011;5882;48.818;9.114;2023-05-10T03:15:25;0.88;;;0.80;;
11651;SDS011;5882;48.818;9.114;2023-05-10T03:18:15;3.65;;;0.85;;
11651;SDS011;5882;48.818;9.114;2023-05-10T03:21:02;1.90;;;0.80;;
11651;SDS011;5882;48.818;9.114;2023-05-10T03:23:50;0.82;;;0.82;;
11651;SDS011;5882;48.818;9.114;2023-05-10T03:26:35;0.70;;;0.70;;
11651;SDS011;5882;48.818;9.114;2023-05-10T03:29:23;0.70;;;0.70;;
11651;SDS011;5882;48.818;9.114;2023-05-10T03:32:10;0.80;;;0.80;;
11651;SDS011;5882;48.818;9.114;2023-05-10T03:34:55;0.90;;;0.90;;
11651;SDS011;5882;48.818;9.114;2023-05-10T03:37:40;0.88;;;0.88;;
11651;SDS011;5882;48.818;9.114;2023-05-10T03:40:25;1.00;;;1.00;;
11651;SDS011;5882;48.818;9.114;2023-05-10T03:43:12;0.80;;;0.80;;
11651;SDS011;5882;48.818;9.114;2023-05-10T03:45:59;0.90;;;0.90;;
11651;SDS011;5882;48.818;9.114;2023-05-10T03:48:46;0.82;;;0.82;;
11651;SDS011;5882;48.818;9.114;2023-05-10T03:51:31;0.80;;;0.80;;
11651;SDS011;5882;48.818;9.114;2023-05-10T03:54:16;1.08;;;1.02;;
11651;SDS011;5882;48.818;9.114;2023-05-10T03:57:01;1.60;;;0.70;;
11651;SDS011;5882;48.818;9.114;2023-05-10T03:59:46;0.75;;;0.75;;
11651;SDS011;5882;48.818;9.114;2023-05-10T04:02:32;0.82;;;0.82;;
11651;SDS011;5882;48.818;9.114;2023-05-10T04:05:18;0.70;;;0.70;;
11651;SDS011;5882;48.818;9.114;2023-05-10T04:08:03;0.73;;;0.73;;
11651;SDS011;5882;48.818;9.114;2023-05-10T04:10:48;0.77;;;0.77;;
11651;SDS011;5882;48.818;9.114;2023-05-10T04:13:33;0.80;;;0.80;;
11651;SDS011;5882;48.818;9.114;2023-05-10T04:16:18;1.20;;;0.90;;
11651;SDS011;5882;48.818;9.114;2023-05-10T04:19:05;0.95;;;0.95;;
11651;SDS011;5882;48.818;9.114;2023-05-10T04:21:49;0.90;;;0.90;;
11651;SDS011;5882;48.818;9.114;2023-05-10T04:24:34;1.00;;;1.00;;
11651;SDS011;5882;48.818;9.114;2023-05-10T04:27:19;0.90;;;0.90;;
11651;SDS011;5882;48.818;9.114;2023-05-10T04:30:05;0.90;;;0.90;;
11651;SDS011;5882;48.818;9.114;2023-05-10T04:32:50;0.90;;;0.90;;
11651;SDS011;5882;48.818;9.114;2023-05-10T04:35:37;1.10;;;1.00;;
11651;SDS011;5882;48.818;9.114;2023-05-10T04:38:23;0.77;;;0.77;;
11651;SDS011;5882;48.818;9.114;2023-05-10T04:41:09;0.80;;;0.80;;
11651;SDS011;5882;48.818;9.114;2023-05-10T04:43:54;0.90;;;0.90;;
11651;SDS011;5882;48.818;9.114;2023-05-10T04:46:39;0.75;;;0.75;;
11651;SDS011;5882;48.818;9.114;2023-05-10T04:49:24;0.80;;;0.80;;
11651;SDS011;5882;48.818;9.114;2023-05-10T04:52:10;0.90;;;0.90;;
11651;SDS011;5882;48.818;9.114;2023-05-10T04:54:55;0.90;;;0.90;;
11651;SDS011;5882;48.818;9.114;2023-05-10T04:57:40;0.88;;;0.88;;
11651;SDS011;5882;48.818;9.114;2023-05-10T05:00:25;0.80;;;0.80;;
11651;SDS011;5882;48.818;9.114;2023-05-10T05:03:10;0.93;;;0.90;;
11651;SDS011;5882;48.818;9.114;2023-05-10T05:05:56;0.80;;;0.80;;
11651;SDS011;5882;48.818;9.114;2023-05-10T05:08:42;1.30;;;0.82;;
11651;SDS011;5882;48.818;9.114;2023-05-10T05:11:27;0.77;;;0.77;;
11651;SDS011;5882;48.818;9.114;2023-05-10T05:14:12;1.00;;;1.00;;
11651;SDS011;5882;48.818;9.114;2023-05-10T05:16:57;0.85;;;0.85;;
11651;SDS011;5882;48.818;9.114;2023-05-10T05:19:42;0.73;;;0.73;;
11651;SDS011;5882;48.818;9.114;2023-05-10T05:22:28;0.80;;;0.80;;
11651;SDS011;5882;48.818;9.114;2023-05-10T05:25:15;0.75;;;0.75;;
11651;SDS011;5882;48.818;9.114;2023-05-10T05:28:00;0.80;;;0.80;;
11651;SDS011;5882;48.818;9.114;2023-05-10T05:30:45;1.10;;;1.10;;
11651;SDS011;5882;48.818;9.114;2023-05-10T05:33:30;0.90;;;0.90;;
11651;SDS011;5882;48.818;9.114;2023-05-10T05:36:15;0.90;;;0.90;;
11651;SDS011;5882;48.818;9.114;2023-05-10T05:39:00;0.88;;;0.88;;
11651;SDS011;5882;48.818;9.114;2023-05-10T05:41:47;0.80;;;0.80;;
11651;SDS011;5882;48.818;9.114;2023-05-10T05:44:32;0.90;;;0.90;;
11651;SDS011;5882;48.818;9.114;2023-05-10T05:47:17;1.00;;;0.90;;
11651;SDS011;5882;48.818;9.114;2023-05-10T05:50:02;1.05;;;0.95;;
11651;SDS011;5882;48.818;9.114;2023-05-10T05:52:46;0.80;;;0.80;;
11651;SDS011;5882;48.818;9.114;2023-05-10T05:55:32;0.70;;;0.70;;
11651;SDS011;5882;48.818;9.114;2023-05-10T05:58:18;0.80;;;0.80;;
11651;SDS011;5882;48.818;9.114;2023-05-10T06:01:04;0.70;;;0.70;;
11651;SDS011;5882;48.818;9.114;2023-05-10T06:03:49;0.80;;;0.80;;
11651;SDS011;5882;48.818;9.114;2023-05-10T06:06:34;0.90;;;0.90;;
11651;SDS011;5882;48.818;9.114;2023-05-10T06:09:19;0.90;;;0.90;;
11651;SDS011;5882;48.818;9.114;2023-05-10T06:12:04;0.90;;;0.90;;
11651;SDS011;5882;48.818;9.114;2023-05-10T06:14:50;0.93;;;0.93;;
11651;SDS011;5882;48.818;9.114;2023-05-10T06:17:35;0.88;;;0.88;;
11651;SDS011;5882;48.818;9.114;2023-05-10T06:20:20;0.80;;;0.80;;
11651;SDS011;5882;48.818;9.114;2023-05-10T06:23:05;1.00;;;1.00;;
11651;SDS011;5882;48.818;9.114;2023-05-10T06:25:50;1.00;;;1.00;;
11651;SDS011;5882;48.818;9.114;2023-05-10T06:28:36;1.77;;;1.00;;
11651;SDS011;5882;48.818;9.114;2023-05-10T06:31:23;1.10;;;1.05;;
11651;SDS011;5882;48.818;9.114;2023-05-10T06:34:08;1.00;;;1.00;;
11651;SDS011;5882;48.818;9.114;2023-05-10T06:36:53;0.90;;;0.90;;
11651;SDS011;5882;48.818;9.114;2023-05-10T06:39:38;1.00;;;0.90;;
11651;SDS011;5882;48.818;9.114;2023-05-10T06:42:23;0.80;;;0.80;;
11651;SDS011;5882;48.818;9.114;2023-05-10T06:45:09;0.90;;;0.90;;
11651;SDS011;5882;48.818;9.114;2023-05-10T06:47:56;0.88;;;0.88;;
11651;SDS011;5882;48.818;9.114;2023-05-10T06:50:41;2.03;;;1.08;;
11651;SDS011;5882;48.818;9.114;2023-05-10T06:53:26;0.85;;;0.85;;
11651;SDS011;5882;48.818;9.114;2023-05-10T06:56:11;1.08;;;1.08;;
11651;SDS011;5882;48.818;9.114;2023-05-10T06:58:56;1.08;;;1.02;;
11651;SDS011;5882;48.818;9.114;2023-05-10T07:01:41;1.10;;;1.00;;
11651;SDS011;5882;48.818;9.114;2023-05-10T07:04:27;1.35;;;0.90;;
11651;SDS011;5882;48.818;9.114;2023-05-10T07:07:13;1.00;;;1.00;;
11651;SDS011;5882;48.818;9.114;2023-05-10T07:09:58;0.80;;;0.80;;
11651;SDS011;5882;48.818;9.114;2023-05-10T07:12:44;0.80;;;0.80;;
11651;SDS011;5882;48.818;9.114;2023-05-10T07:15:29;0.85;;;0.85;;
11651;SDS011;5882;48.818;9.114;2023-05-10T07:18:13;0.77;;;0.77;;
11651;SDS011;5882;48.818;9.114;2023-05-10T07:21:00;0.90;;;0.90;;
11651;SDS011;5882;48.818;9.114;2023-05-10T07:23:45;0.90;;;0.90;;
11651;SDS011;5882;48.818;9.114;2023-05-10T07:26:30;0.77;;;0.77;;
11651;SDS011;5882;48.818;9.114;2023-05-10T07:29:15;0.80;;;0.80;;
11651;SDS011;5882;48.818;9.114;2023-05-10T07:32:00;0.80;;;0.80;;
11651;SDS011;5882;48.818;9.114;2023-05-10T07:34:45;0.90;;;0.90;;
11651;SDS011;5882;48.818;9.114;2023-05-10T07:37:31;1.17;;;0.90;;
11651;SDS011;5882;48.818;9.114;2023-05-10T07:40:17;1.20;;;1.10;;
11651;SDS011;5882;48.818;9.114;2023-05-10T07:43:02;0.90;;;0.90;;
11651;SDS011;5882;48.818;9.114;2023-05-10T07:45:46;0.90;;;0.90;;
11651;SDS011;5882;48.818;9.114;2023-05-10T07:48:32;0.82;;;0.82;;
11651;SDS011;5882;48.818;9.114;2023-05-10T07:51:17;0.95;;;0.73;;
11651;SDS011;5882;48.818;9.114;2023-05-10T07:54:04;0.85;;;0.85;;
11651;SDS011;5882;48.818;9.114;2023-05-10T07:56:50;0.80;;;0.80;;
11651;SDS011;5882;48.818;9.114;2023-05-10T07:59:35;0.85;;;0.85;;
11651;SDS011;5882;48.818;9.114;2023-05-10T08:02:20;0.85;;;0.85;;
11651;SDS011;5882;48.818;9.114;2023-05-10T08:05:05;1.00;;;1.00;;
11651;SDS011;5882;48.818;9.114;2023-05-10T08:07:51;0.90;;;0.90;;
11651;SDS011;5882;48.818;9.114;2023-05-10T08:10:37;0.70;;;0.70;;
11651;SDS011;5882;48.818;9.114;2023-05-10T08:13:22;0.70;;;0.70;;
11651;SDS011;5882;48.818;9.114;2023-05-10T08:16:07;0.80;;;0.80;;
11651;SDS011;5882;48.818;9.114;2023-05-10T08:18:52;0.80;;;0.80;;
11651;SDS011;5882;48.818;9.114;2023-05-10T08:21:38;0.73;;;0.73;;
11651;SDS011;5882;48.818;9.114;2023-05-10T08:24:25;0.70;;;0.70;;
11651;SDS011;5882;48.818;9.114;2023-05-10T08:27:12;0.70;;;0.70;;
11651;SDS011;5882;48.818;9.114;2023-05-10T08:29:57;0.73;;;0.73;;
11651;SDS011;5882;48.818;9.114;2023-05-10T08:32:42;0.80;;;0.80;;
11651;SDS011;5882;48.818;9.114;2023-05-10T08:35:27;0.70;;;0.70;;
11651;SDS011;5882;48.818;9.114;2023-05-10T08:38:12;0.77;;;0.77;;
11651;SDS011;5882;48.818;9.114;2023-05-10T08:40:57;0.80;;;0.80;;
11651;SDS011;5882;48.818;9.114;2023-05-10T08:43:44;0.63;;;0.63;;
11651;SDS011;5882;48.818;9.114;2023-05-10T08:46:30;0.88;;;0.88;;
11651;SDS011;5882;48.818;9.114;2023-05-10T08:49:18;0.70;;;0.70;;
11651;SDS011;5882;48.818;9.114;2023-05-10T08:52:05;0.70;;;0.70;;
11651;SDS011;5882;48.818;9.114;2023-05-10T08:54:51;0.65;;;0.65;;
11651;SDS011;5882;48.818;9.114;2023-05-10T08:57:36;0.80;;;0.80;;
11651;SDS011;5882;48.818;9.114;2023-05-10T09:00:23;1.65;;;0.80;;
11651;SDS011;5882;48.818;9.114;2023-05-10T09:03:08;0.80;;;0.80;;
11651;SDS011;5882;48.818;9.114;2023-05-10T09:05:54;0.70;;;0.70;;
11651;SDS011;5882;48.818;9.114;2023-05-10T09:08:40;0.75;;;0.75;;
11651;SDS011;5882;48.818;9.114;2023-05-10T09:11:26;0.60;;;0.60;;
11651;SDS011;5882;48.818;9.114;2023-05-10T09:14:12;0.70;;;0.70;;
11651;SDS011;5882;48.818;9.114;2023-05-10T09:16:59;0.75;;;0.75;;
11651;SDS011;5882;48.818;9.114;2023-05-10T09:19:45;0.73;;;0.73;;
11651;SDS011;5882;48.818;9.114;2023-05-10T09:22:30;0.70;;;0.70;;
11651;SDS011;5882;48.818;9.114;2023-05-10T09:25:16;0.70;;;0.70;;
11651;SDS011;5882;48.818;9.114;2023-05-10T09:28:01;0.75;;;0.75;;
11651;SDS011;5882;48.818;9.114;2023-05-10T09:30:45;0.70;;;0.70;;
11651;SDS011;5882;48.818;9.114;2023-05-10T09:33:44;0.70;;;0.70;;
11651;SDS011;5882;48.818;9.114;2023-05-10T09:36:30;0.60;;;0.60;;
11651;SDS011;5882;48.818;9.114;2023-05-10T09:39:15;0.70;;;0.70;;
11651;SDS011;5882;48.818;9.114;2023-05-10T09:42:00;0.70;;;0.70;;
11651;SDS011;5882;48.818;9.114;2023-05-10T09:44:47;0.70;;;0.70;;
11651;SDS011;5882;48.818;9.114;2023-05-10T09:47:32;0.70;;;0.70;;
11651;SDS011;5882;48.818;9.114;2023-05-10T09:50:20;0.70;;;0.70;;
11651;SDS011;5882;48.818;9.114;2023-05-10T09:53:05;0.82;;;0.77;;
11651;SDS011;5882;48.818;9.114;2023-05-10T09:55:50;0.90;;;0.90;;
11651;SDS011;5882;48.818;9.114;2023-05-10T09:58:36;0.70;;;0.70;;
11651;SDS011;5882;48.818;9.114;2023-05-10T10:01:22;0.80;;;0.80;;
11651;SDS011;5882;48.818;9.114;2023-05-10T10:04:10;0.77;;;0.70;;
11651;SDS011;5882;48.818;9.114;2023-05-10T10:07:00;0.80;;;0.80;;
11651;SDS011;5882;48.818;9.114;2023-05-10T10:09:46;0.80;;;0.80;;
11651;SDS011;5882;48.818;9.114;2023-05-10T10:12:31;0.60;;;0.60;;
11651;SDS011;5882;48.818;9.114;2023-05-10T10:15:16;0.75;;;0.75;;
11651;SDS011;5882;48.818;9.114;2023-05-10T10:18:01;0.70;;;0.70;;
11651;SDS011;5882;48.818;9.114;2023-05-10T10:20:47;0.80;;;0.80;;
11651;SDS011;5882;48.818;9.114;2023-05-10T10:23:35;0.77;;;0.77;;
11651;SDS011;5882;48.818;9.114;2023-05-10T10:26:20;0.60;;;0.60;;
11651;SDS011;5882;48.818;9.114;2023-05-10T10:29:10;0.60;;;0.60;;
11651;SDS011;5882;48.818;9.114;2023-05-10T10:32:21;0.70;;;0.70;;
11651;SDS011;5882;48.818;9.114;2023-05-10T10:35:10;0.70;;;0.70;;
11651;SDS011;5882;48.818;9.114;2023-05-10T10:37:55;0.93;;;0.80;;
11651;SDS011;5882;48.818;9.114;2023-05-10T10:40:42;0.68;;;0.68;;
11651;SDS011;5882;48.818;9.114;2023-05-10T10:43:27;0.73;;;0.73;;
11651;SDS011;5882;48.818;9.114;2023-05-10T10:46:13;0.70;;;0.70;;
11651;SDS011;5882;48.818;9.114;2023-05-10T10:49:08;0.70;;;0.70;;
11651;SDS011;5882;48.818;9.114;2023-05-10T10:54:57;0.60;;;0.60;;
11651;SDS011;5882;48.818;9.114;2023-05-10T10:57:45;0.70;;;0.70;;
11651;SDS011;5882;48.818;9.114;2023-05-10T11:00:31;0.73;;;0.73;;
11651;SDS011;5882;48.818;9.114;2023-05-10T11:03:17;0.68;;;0.68;;
11651;SDS011;5882;48.818;9.114;2023-05-10T11:06:03;0.60;;;0.60;;
11651;SDS011;5882;48.818;9.114;2023-05-10T11:08:48;0.60;;;0.60;;
11651;SDS011;5882;48.818;9.114;2023-05-10T11:11:34;0.65;;;0.65;;
11651;SDS011;5882;48.818;9.114;2023-05-10T11:14:21;0.70;;;0.70;;
11651;SDS011;5882;48.818;9.114;2023-05-10T11:20:07;0.60;;;0.60;;
11651;SDS011;5882;48.818;9.114;2023-05-10T11:22:53;0.60;;;0.60;;
11651;SDS011;5882;48.818;9.114;2023-05-10T11:25:40;0.60;;;0.60;;
11651;SDS011;5882;48.818;9.114;2023-05-10T11:28:26;0.80;;;0.80;;
11651;SDS011;5882;48.818;9.114;2023-05-10T11:31:14;0.70;;;0.70;;
11651;SDS011;5882;48.818;9.114;2023-05-10T11:34:00;0.65;;;0.65;;
11651;SDS011;5882;48.818;9.114;2023-05-10T11:36:45;0.70;;;0.70;;
11651;SDS011;5882;48.818;9.114;2023-05-10T11:39:38;0.68;;;0.68;;
11651;SDS011;5882;48.818;9.114;2023-05-10T11:42:30;0.77;;;0.77;;
11651;SDS011;5882;48.818;9.114;2023-05-10T11:45:15;0.70;;;0.70;;
11651;SDS011;5882;48.818;9.114;2023-05-10T11:48:02;0.70;;;0.70;;
11651;SDS011;5882;48.818;9.114;2023-05-10T11:50:47;0.90;;;0.90;;
11651;SDS011;5882;48.818;9.114;2023-05-10T11:53:32;0.75;;;0.75;;
11651;SDS011;5882;48.818;9.114;2023-05-10T11:56:17;0.80;;;0.80;;
11651;SDS011;5882;48.818;9.114;2023-05-10T11:59:03;1.52;;;0.80;;
11651;SDS011;5882;48.818;9.114;2023-05-10T12:01:49;1.05;;;0.70;;
11651;SDS011;5882;48.818;9.114;2023-05-10T12:04:35;0.75;;;0.75;;
11651;SDS011;5882;48.818;9.114;2023-05-10T12:07:21;0.85;;;0.85;;
11651;SDS011;5882;48.818;9.114;2023-05-10T12:10:09;0.70;;;0.70;;
11651;SDS011;5882;48.818;9.114;2023-05-10T12:12:55;0.68;;;0.68;;
11651;SDS011;5882;48.818;9.114;2023-05-10T12:15:41;0.80;;;0.80;;
11651;SDS011;5882;48.818;9.114;2023-05-10T12:18:26;0.90;;;0.90;;
11651;SDS011;5882;48.818;9.114;2023-05-10T12:21:13;0.70;;;0.70;;
11651;SDS011;5882;48.818;9.114;2023-05-10T12:23:59;0.70;;;0.70;;
11651;SDS011;5882;48.818;9.114;2023-05-10T12:26:45;0.68;;;0.68;;
11651;SDS011;5882;48.818;9.114;2023-05-10T12:29:31;0.70;;;0.70;;
11651;SDS011;5882;48.818;9.114;2023-05-10T12:32:16;0.90;;;0.90;;
11651;SDS011;5882;48.818;9.114;2023-05-10T12:35:03;0.85;;;0.85;;
11651;SDS011;5882;48.818;9.114;2023-05-10T12:37:50;1.08;;;0.70;;
11651;SDS011;5882;48.818;9.114;2023-05-10T12:40:35;0.80;;;0.80;;
11651;SDS011;5882;48.818;9.114;2023-05-10T12:43:20;0.77;;;0.77;;
11651;SDS011;5882;48.818;9.114;2023-05-10T12:46:06;0.70;;;0.70;;
11651;SDS011;5882;48.818;9.114;2023-05-10T12:48:51;0.70;;;0.70;;
11651;SDS011;5882;48.818;9.114;2023-05-10T12:51:38;0.70;;;0.70;;
11651;SDS011;5882;48.818;9.114;2023-05-10T12:54:25;0.80;;;0.80;;
11651;SDS011;5882;48.818;9.114;2023-05-10T12:57:10;0.73;;;0.73;;
11651;SDS011;5882;48.818;9.114;2023-05-10T12:59:55;1.00;;;0.90;;
11651;SDS011;5882;48.818;9.114;2023-05-10T13:02:43;0.70;;;0.70;;
11651;SDS011;5882;48.818;9.114;2023-05-10T13:05:28;0.70;;;0.70;;
11651;SDS011;5882;48.818;9.114;2023-05-10T13:08:14;0.77;;;0.77;;
11651;SDS011;5882;48.818;9.114;2023-05-10T13:11:02;0.80;;;0.80;;
11651;SDS011;5882;48.818;9.114;2023-05-10T13:13:47;0.93;;;0.80;;
11651;SDS011;5882;48.818;9.114;2023-05-10T13:16:35;0.60;;;0.60;;
11651;SDS011;5882;48.818;9.114;2023-05-10T13:19:20;0.80;;;0.80;;
11651;SDS011;5882;48.818;9.114;2023-05-10T13:22:05;0.80;;;0.80;;
11651;SDS011;5882;48.818;9.114;2023-05-10T13:24:50;0.85;;;0.85;;
11651;SDS011;5882;48.818;9.114;2023-05-10T13:27:37;0.70;;;0.70;;
11651;SDS011;5882;48.818;9.114;2023-05-10T13:30:24;0.85;;;0.85;;
11651;SDS011;5882;48.818;9.114;2023-05-10T13:33:09;0.73;;;0.73;;
11651;SDS011;5882;48.818;9.114;2023-05-10T13:35:55;0.70;;;0.70;;
11651;SDS011;5882;48.818;9.114;2023-05-10T13:38:40;0.80;;;0.80;;
11651;SDS011;5882;48.818;9.114;2023-05-10T13:41:25;0.70;;;0.70;;
11651;SDS011;5882;48.818;9.114;2023-05-10T13:44:13;0.80;;;0.80;;
11651;SDS011;5882;48.818;9.114;2023-05-10T13:46:58;0.80;;;0.80;;
11651;SDS011;5882;48.818;9.114;2023-05-10T13:49:44;0.80;;;0.80;;
11651;SDS011;5882;48.818;9.114;2023-05-10T13:52:29;0.70;;;0.70;;
11651;SDS011;5882;48.818;9.114;2023-05-10T13:55:14;0.80;;;0.80;;
11651;SDS011;5882;48.818;9.114;2023-05-10T13:58:00;0.80;;;0.80;;
11651;SDS011;5882;48.818;9.114;2023-05-10T14:00:46;0.77;;;0.77;;
11651;SDS011;5882;48.818;9.114;2023-05-10T14:03:31;0.70;;;0.70;;
11651;SDS011;5882;48.818;9.114;2023-05-10T14:06:17;0.70;;;0.70;;
11651;SDS011;5882;48.818;9.114;2023-05-10T14:09:02;0.70;;;0.70;;
11651;SDS011;5882;48.818;9.114;2023-05-10T14:11:47;0.80;;;0.77;;
11651;SDS011;5882;48.818;9.114;2023-05-10T14:14:33;0.95;;;0.80;;
11651;SDS011;5882;48.818;9.114;2023-05-10T14:17:19;0.70;;;0.70;;
11651;SDS011;5882;48.818;9.114;2023-05-10T14:20:06;0.70;;;0.70;;
11651;SDS011;5882;48.818;9.114;2023-05-10T14:22:52;0.70;;;0.70;;
11651;SDS011;5882;48.818;9.114;2023-05-10T14:25:37;0.73;;;0.73;;
11651;SDS011;5882;48.818;9.114;2023-05-10T14:28:22;0.70;;;0.70;;
11651;SDS011;5882;48.818;9.114;2023-05-10T14:31:08;0.70;;;0.70;;
11651;SDS011;5882;48.818;9.114;2023-05-10T14:33:55;0.73;;;0.73;;
11651;SDS011;5882;48.818;9.114;2023-05-10T14:36:40;0.80;;;0.80;;
11651;SDS011;5882;48.818;9.114;2023-05-10T14:39:26;0.75;;;0.75;;
11651;SDS011;5882;48.818;9.114;2023-05-10T14:42:13;0.70;;;0.70;;
11651;SDS011;5882;48.818;9.114;2023-05-10T14:44:58;0.60;;;0.60;;
11651;SDS011;5882;48.818;9.114;2023-05-10T14:47:43;0.80;;;0.80;;
11651;SDS011;5882;48.818;9.114;2023-05-10T14:50:29;1.85;;;0.80;;
11651;SDS011;5882;48.818;9.114;2023-05-10T14:53:15;0.70;;;0.70;;
11651;SDS011;5882;48.818;9.114;2023-05-10T14:56:00;0.80;;;0.80;;
11651;SDS011;5882;48.818;9.114;2023-05-10T14:58:46;0.70;;;0.70;;
11651;SDS011;5882;48.818;9.114;2023-05-10T15:01:31;0.80;;;0.80;;
11651;SDS011;5882;48.818;9.114;2023-05-10T15:04:18;0.70;;;0.70;;
11651;SDS011;5882;48.818;9.114;2023-05-10T15:07:04;0.80;;;0.80;;
11651;SDS011;5882;48.818;9.114;2023-05-10T15:09:49;0.70;;;0.70;;
11651;SDS011;5882;48.818;9.114;2023-05-10T15:12:35;0.70;;;0.70;;
11651;SDS011;5882;48.818;9.114;2023-05-10T15:15:20;0.80;;;0.80;;
11651;SDS011;5882;48.818;9.114;2023-05-10T15:18:05;0.73;;;0.73;;
11651;SDS011;5882;48.818;9.114;2023-05-10T15:20:50;0.85;;;0.70;;
11651;SDS011;5882;48.818;9.114;2023-05-10T15:23:37;0.80;;;0.80;;
11651;SDS011;5882;48.818;9.114;2023-05-10T15:26:22;0.63;;;0.63;;
11651;SDS011;5882;48.818;9.114;2023-05-10T15:29:10;0.70;;;0.70;;
11651;SDS011;5882;48.818;9.114;2023-05-10T15:31:55;0.70;;;0.70;;
11651;SDS011;5882;48.818;9.114;2023-05-10T15:34:40;0.80;;;0.80;;
11651;SDS011;5882;48.818;9.114;2023-05-10T15:37:26;0.80;;;0.80;;
11651;SDS011;5882;48.818;9.114;2023-05-10T15:40:12;0.80;;;0.80;;
11651;SDS011;5882;48.818;9.114;2023-05-10T15:42:57;0.85;;;0.85;;
11651;SDS011;5882;48.818;9.114;2023-05-10T15:45:45;0.70;;;0.70;;
11651;SDS011;5882;48.818;9.114;2023-05-10T15:48:30;0.85;;;0.85;;
11651;SDS011;5882;48.818;9.114;2023-05-10T15:51:15;3.20;;;1.08;;
11651;SDS011;5882;48.818;9.114;2023-05-10T15:54:01;0.73;;;0.70;;
11651;SDS011;5882;48.818;9.114;2023-05-10T15:56:48;0.80;;;0.80;;
11651;SDS011;5882;48.818;9.114;2023-05-10T15:59:33;0.80;;;0.80;;
11651;SDS011;5882;48.818;9.114;2023-05-10T16:02:19;0.70;;;0.70;;
11651;SDS011;5882;48.818;9.114;2023-05-10T16:05:05;0.63;;;0.63;;
11651;SDS011;5882;48.818;9.114;2023-05-10T16:07:50;0.70;;;0.70;;
11651;SDS011;5882;48.818;9.114;2023-05-10T16:10:35;0.80;;;0.80;;
11651;SDS011;5882;48.818;9.114;2023-05-10T16:13:22;0.80;;;0.80;;
11651;SDS011;5882;48.818;9.114;2023-05-10T16:16:07;0.77;;;0.77;;
11651;SDS011;5882;48.818;9.114;2023-05-10T16:18:52;0.73;;;0.73;;
11651;SDS011;5882;48.818;9.114;2023-05-10T16:21:37;0.60;;;0.60;;
11651;SDS011;5882;48.818;9.114;2023-05-10T16:24:23;0.70;;;0.70;;
11651;SDS011;5882;48.818;9.114;2023-05-10T16:27:08;0.70;;;0.70;;
11651;SDS011;5882;48.818;9.114;2023-05-10T16:29:57;0.70;;;0.70;;
11651;SDS011;5882;48.818;9.114;2023-05-10T16:32:42;0.70;;;0.70;;
11651;SDS011;5882;48.818;9.114;2023-05-10T16:35:27;0.65;;;0.65;;
11651;SDS011;5882;48.818;9.114;2023-05-10T16:38:13;0.70;;;0.70;;
11651;SDS011;5882;48.818;9.114;2023-05-10T16:41:00;0.60;;;0.60;;
11651;SDS011;5882;48.818;9.114;2023-05-10T16:43:46;0.70;;;0.70;;
11651;SDS011;5882;48.818;9.114;2023-05-10T16:46:33;0.70;;;0.70;;
11651;SDS011;5882;48.818;9.114;2023-05-10T16:49:18;0.70;;;0.70;;
11651;SDS011;5882;48.818;9.114;2023-05-10T16:52:04;0.63;;;0.63;;
11651;SDS011;5882;48.818;9.114;2023-05-10T16:54:49;0.70;;;0.70;;
11651;SDS011;5882;48.818;9.114;2023-05-10T16:57:34;0.60;;;0.60;;
11651;SDS011;5882;48.818;9.114;2023-05-10T17:00:19;1.25;;;0.70;;
11651;SDS011;5882;48.818;9.114;2023-05-10T17:03:06;0.70;;;0.70;;
11651;SDS011;5882;48.818;9.114;2023-05-10T17:05:51;0.70;;;0.70;;
11651;SDS011;5882;48.818;9.114;2023-05-10T17:08:36;0.70;;;0.70;;